Time;durP1;ratioP1;P1;durP2;ratioP2;P2;SDS_P1;SDS_P2;PMS_P1;PMS_P2;Temp;Humidity;BMP_temperature;BMP_pressure;BME280_temperature;BME280_humidity;BME280_pressure;Samples;Min_cycle;Max_cycle;Signal;HPM_P1;HPM_P2
2021/05/02 00:02:09;;;;;;;13.27;9.00;;;9.30;99.90;;;;;;5031250;28;20218;-78
2021/05/02 00:04:35;;;;;;;12.77;9.30;;;9.30;99.90;;;;;;5031390;28;20302;-77
2021/05/02 00:07:02;;;;;;;12.87;9.33;;;9.30;99.90;;;;;;5031001;28;20191;-78
2021/05/02 00:09:30;;;;;;;14.23;9.77;;;9.30;99.90;;;;;;5029075;28;20213;-78
2021/05/02 00:11:57;;;;;;;14.43;9.83;;;9.20;99.90;;;;;;5029391;28;20193;-80
2021/05/02 00:14:22;;;;;;;12.70;8.83;;;9.20;99.90;;;;;;5027933;28;20293;-78
2021/05/02 00:16:51;;;;;;;13.17;9.27;;;9.20;99.90;;;;;;5029441;28;20321;-79
2021/05/02 00:19:19;;;;;;;14.27;8.90;;;9.10;99.90;;;;;;5029348;28;20586;-78
2021/05/02 00:21:46;;;;;;;15.03;9.07;;;9.10;99.90;;;;;;5029592;28;20210;-79
2021/05/02 00:24:12;;;;;;;12.10;9.10;;;9.10;99.90;;;;;;5028990;28;20252;-78
2021/05/02 00:26:38;;;;;;;14.43;9.30;;;9.20;99.90;;;;;;5029097;28;20188;-80
2021/05/02 00:29:04;;;;;;;14.37;9.37;;;9.20;99.90;;;;;;5029269;28;20718;-78
2021/05/02 00:31:30;;;;;;;13.23;9.43;;;9.20;99.90;;;;;;5028827;28;20199;-78
2021/05/02 00:33:56;;;;;;;10.30;8.17;;;9.20;99.90;;;;;;5027421;28;20190;-78
2021/05/02 00:36:22;;;;;;;14.47;10.10;;;9.20;99.90;;;;;;5027239;28;20268;-78
2021/05/02 00:38:48;;;;;;;11.37;8.00;;;9.10;99.90;;;;;;5028150;28;20206;-78
2021/05/02 00:41:21;;;;;;;13.03;8.50;;;9.10;99.90;;;;;;5027643;28;20217;-78
2021/05/02 00:44:08;;;;;;;14.70;8.93;;;9.10;99.90;;;;;;5027812;28;20314;-77
2021/05/02 00:46:44;;;;;;;12.27;9.33;;;9.10;99.90;;;;;;5025727;28;20206;-79
2021/05/02 00:49:17;;;;;;;12.50;8.53;;;9.10;99.90;;;;;;5024945;28;20190;-77
2021/05/02 00:51:55;;;;;;;10.93;7.83;;;9.00;99.90;;;;;;5025607;28;20664;-78
2021/05/02 00:54:37;;;;;;;11.97;8.73;;;9.00;99.90;;;;;;5025109;28;20214;-79
2021/05/02 00:57:14;;;;;;;11.00;7.70;;;9.10;99.90;;;;;;5026583;28;20229;-79
2021/05/02 00:59:55;;;;;;;9.97;7.07;;;9.00;99.90;;;;;;5026085;28;20237;-83
2021/05/02 01:02:22;;;;;;;11.20;7.10;;;9.00;99.90;;;;;;5044074;28;20185;-83
2021/05/02 01:04:51;;;;;;;9.10;6.33;;;9.00;99.90;;;;;;5027112;28;20237;-79
2021/05/02 01:07:34;;;;;;;10.83;7.63;;;9.00;99.90;;;;;;5027419;28;20210;-77
2021/05/02 01:10:04;;;;;;;8.83;6.60;;;9.00;99.90;;;;;;5028721;28;20183;-81
2021/05/02 01:12:31;;;;;;;9.83;6.97;;;9.00;99.90;;;;;;5048737;28;20293;-80
2021/05/02 01:14:58;;;;;;;11.87;7.43;;;9.00;99.90;;;;;;5030277;28;20199;-81
2021/05/02 01:17:26;;;;;;;11.23;7.60;;;9.00;99.90;;;;;;5030004;28;20178;-79
2021/05/02 01:19:53;;;;;;;11.03;7.67;;;9.00;99.90;;;;;;5029182;28;20179;-81
2021/05/02 01:22:20;;;;;;;8.47;6.40;;;9.00;99.90;;;;;;5030318;28;20190;-79
2021/05/02 01:24:51;;;;;;;9.80;7.00;;;8.90;99.90;;;;;;5032086;28;20206;-82
2021/05/02 01:27:28;;;;;;;9.93;7.20;;;8.90;99.90;;;;;;5039919;28;20175;-82
2021/05/02 01:29:55;;;;;;;8.87;7.43;;;9.00;99.90;;;;;;5032542;28;20646;-79
2021/05/02 01:32:22;;;;;;;9.20;6.73;;;9.00;99.90;;;;;;5027267;28;20660;-79
2021/05/02 01:34:49;;;;;;;13.13;7.17;;;9.00;99.90;;;;;;5028293;28;20203;-78
2021/05/02 01:37:14;;;;;;;7.83;6.37;;;8.90;99.90;;;;;;5028564;28;20198;-79
2021/05/02 01:39:40;;;;;;;12.13;7.17;;;8.90;99.90;;;;;;5028963;28;20178;-81
2021/05/02 01:42:07;;;;;;;10.77;7.90;;;8.80;99.90;;;;;;5025939;28;20234;-81
2021/05/02 01:44:33;;;;;;;9.80;7.40;;;8.90;99.90;;;;;;5027535;28;20225;-77
2021/05/02 01:47:08;;;;;;;9.77;6.50;;;8.80;99.90;;;;;;5043460;28;20627;-79
2021/05/02 01:49:35;;;;;;;9.40;6.70;;;8.80;99.90;;;;;;5027194;28;20188;-81
2021/05/02 01:52:01;;;;;;;8.47;6.30;;;8.80;99.90;;;;;;5026931;28;20193;-79
2021/05/02 01:54:29;;;;;;;11.00;7.70;;;8.80;99.90;;;;;;5027845;28;20209;-79
2021/05/02 01:56:55;;;;;;;9.13;6.73;;;8.80;99.90;;;;;;5026247;28;20182;-80
2021/05/02 01:59:22;;;;;;;9.03;7.10;;;8.70;99.90;;;;;;5028094;28;20266;-79
2021/05/02 02:01:48;;;;;;;10.63;7.00;;;8.80;99.90;;;;;;5026936;28;20620;-79
2021/05/02 02:04:13;;;;;;;10.57;7.00;;;8.70;99.90;;;;;;5034454;28;20179;-78
2021/05/02 02:06:40;;;;;;;10.47;7.63;;;8.70;99.90;;;;;;5027589;28;20183;-79
2021/05/02 02:09:08;;;;;;;8.57;6.60;;;8.60;99.90;;;;;;5027197;28;20287;-79
2021/05/02 02:11:34;;;;;;;9.87;7.17;;;8.60;99.90;;;;;;5025961;28;20652;-79
2021/05/02 02:14:00;;;;;;;10.33;7.00;;;8.50;99.90;;;;;;5027340;28;20202;-78
2021/05/02 02:16:26;;;;;;;9.20;6.00;;;8.60;99.90;;;;;;5027748;28;20206;-78
2021/05/02 02:18:53;;;;;;;8.40;6.20;;;8.50;99.90;;;;;;5026245;28;20229;-81
2021/05/02 02:21:22;;;;;;;9.67;6.90;;;8.40;99.90;;;;;;5025617;28;20575;-82
2021/05/02 02:23:55;;;;;;;9.83;6.40;;;8.30;99.90;;;;;;5027251;28;20220;-80
2021/05/02 02:26:39;;;;;;;8.20;6.20;;;8.30;99.90;;;;;;5027424;28;21233;-79
2021/05/02 02:29:07;;;;;;;9.07;6.50;;;8.20;99.90;;;;;;5027247;28;20183;-78
2021/05/02 02:31:34;;;;;;;10.33;6.67;;;8.20;99.90;;;;;;5025855;28;20183;-82
2021/05/02 02:34:04;;;;;;;8.43;6.17;;;8.20;99.90;;;;;;5026208;28;20179;-80
2021/05/02 02:36:30;;;;;;;10.03;7.60;;;8.30;99.90;;;;;;5027382;28;20193;-78
2021/05/02 02:38:56;;;;;;;8.97;6.00;;;8.30;99.90;;;;;;5026923;28;20321;-81
2021/05/02 02:41:24;;;;;;;8.77;6.63;;;8.20;99.90;;;;;;5026604;28;20337;-80
2021/05/02 02:43:54;;;;;;;6.37;5.27;;;8.20;99.90;;;;;;5029611;28;20715;-79
2021/05/02 02:46:21;;;;;;;6.37;5.53;;;8.20;99.90;;;;;;5029941;28;20199;-79
2021/05/02 02:48:55;;;;;;;9.37;6.20;;;8.20;99.90;;;;;;5030909;28;20225;-79
2021/05/02 02:51:22;;;;;;;7.73;5.70;;;8.10;99.90;;;;;;5028487;28;20183;-79
2021/05/02 02:53:51;;;;;;;7.00;5.10;;;8.10;99.90;;;;;;5029977;28;20183;-80
2021/05/02 02:56:19;;;;;;;7.73;5.73;;;8.00;99.90;;;;;;5029847;28;20289;-78
2021/05/02 02:59:09;;;;;;;6.87;5.13;;;8.00;99.90;;;;;;5030756;28;20183;-79
2021/05/02 03:01:40;;;;;;;7.57;5.60;;;7.90;99.90;;;;;;5044913;28;20678;-79
2021/05/02 03:04:10;;;;;;;6.63;5.20;;;7.90;99.90;;;;;;5037353;28;20194;-78
2021/05/02 03:06:36;;;;;;;6.67;5.10;;;7.80;99.90;;;;;;5030517;28;20433;-80
2021/05/02 03:09:03;;;;;;;7.63;5.37;;;7.90;99.90;;;;;;5030080;28;20194;-79
2021/05/02 03:11:29;;;;;;;7.07;5.53;;;7.80;99.90;;;;;;5031252;28;21061;-79
2021/05/02 03:13:55;;;;;;;7.47;5.97;;;7.80;99.90;;;;;;5031830;28;20197;-80
2021/05/02 03:16:27;;;;;;;7.73;6.53;;;7.80;99.90;;;;;;5030344;28;20207;-79
2021/05/02 03:19:02;;;;;;;8.07;5.33;;;7.80;99.90;;;;;;5032010;28;20958;-80
2021/05/02 03:22:07;;;;;;;8.50;5.67;;;7.90;99.90;;;;;;5031391;28;20197;-78
2021/05/02 03:24:45;;;;;;;7.60;5.37;;;7.80;99.90;;;;;;5011230;28;20206;-78
2021/05/02 03:27:18;;;;;;;7.87;5.43;;;7.80;99.90;;;;;;5032008;28;20186;-79
2021/05/02 03:29:47;;;;;;;7.83;5.10;;;7.70;99.90;;;;;;5031931;28;20175;-79
2021/05/02 03:32:13;;;;;;;7.73;6.03;;;7.60;99.90;;;;;;5029348;28;20182;-78
2021/05/02 03:34:41;;;;;;;6.80;5.30;;;7.50;99.90;;;;;;5031194;28;20198;-79
2021/05/02 03:37:13;;;;;;;8.50;5.50;;;7.50;99.90;;;;;;5030104;28;20198;-78
2021/05/02 03:39:40;;;;;;;7.77;5.70;;;7.50;99.90;;;;;;5028899;28;20187;-80
2021/05/02 03:42:06;;;;;;;8.00;5.80;;;7.50;99.90;;;;;;5030987;28;20202;-79
2021/05/02 03:44:31;;;;;;;8.63;6.60;;;7.50;99.90;;;;;;5030598;28;20202;-80
2021/05/02 03:46:57;;;;;;;10.07;6.00;;;7.40;99.90;;;;;;5031287;28;20179;-78
2021/05/02 03:49:23;;;;;;;8.00;6.13;;;7.40;99.90;;;;;;5031329;28;20633;-77
2021/05/02 03:51:49;;;;;;;9.73;6.27;;;7.20;99.90;;;;;;5030520;28;20222;-77
2021/05/02 03:54:15;;;;;;;10.40;5.97;;;7.20;99.90;;;;;;5045253;28;20240;-79
2021/05/02 03:56:43;;;;;;;10.03;6.50;;;7.30;99.90;;;;;;5028813;28;20183;-79
2021/05/02 03:59:14;;;;;;;9.53;6.37;;;7.20;99.90;;;;;;5029714;28;20179;-79
2021/05/02 04:01:57;;;;;;;11.23;6.73;;;7.20;99.90;;;;;;5028289;28;20238;-79
2021/05/02 04:04:25;;;;;;;8.40;6.23;;;7.20;99.90;;;;;;5028372;28;20226;-79
2021/05/02 04:06:56;;;;;;;8.07;6.13;;;7.30;99.90;;;;;;5028625;28;20182;-79
2021/05/02 04:09:21;;;;;;;9.40;7.33;;;7.20;99.90;;;;;;5026370;28;20190;-78
2021/05/02 04:11:47;;;;;;;9.73;6.60;;;7.20;99.90;;;;;;5022720;28;20183;-78
2021/05/02 04:14:15;;;;;;;9.70;6.73;;;7.20;99.90;;;;;;5023996;28;20191;-79
2021/05/02 04:16:41;;;;;;;10.03;6.60;;;7.20;99.90;;;;;;5045613;28;20222;-79
2021/05/02 04:19:09;;;;;;;9.73;7.30;;;7.20;99.90;;;;;;5030334;28;20202;-78
2021/05/02 04:21:36;;;;;;;11.93;7.13;;;7.20;99.90;;;;;;5030324;28;20522;-78
2021/05/02 04:24:02;;;;;;;8.77;6.37;;;7.30;99.90;;;;;;5029867;28;20180;-78
2021/05/02 04:26:28;;;;;;;8.20;6.27;;;7.30;99.90;;;;;;5038686;28;20339;-79
2021/05/02 04:28:54;;;;;;;10.57;8.07;;;7.30;99.90;;;;;;5033697;28;20333;-78
2021/05/02 04:31:19;;;;;;;10.77;7.57;;;7.40;99.90;;;;;;5033982;28;20195;-79
2021/05/02 04:33:46;;;;;;;11.23;6.87;;;7.40;99.90;;;;;;5032385;28;20175;-80
2021/05/02 04:36:11;;;;;;;11.00;7.73;;;7.40;99.90;;;;;;5032776;28;20292;-79
2021/05/02 04:38:37;;;;;;;11.30;7.53;;;7.40;99.90;;;;;;5032120;28;20199;-78
2021/05/02 04:41:03;;;;;;;11.70;7.30;;;7.40;99.90;;;;;;5031970;28;21284;-79
2021/05/02 04:43:29;;;;;;;14.97;9.23;;;7.40;99.90;;;;;;5031679;28;20190;-79
2021/05/02 04:45:54;;;;;;;10.07;6.90;;;7.50;99.90;;;;;;5033507;28;20211;-79
2021/05/02 04:48:20;;;;;;;9.97;7.37;;;7.50;99.90;;;;;;5031766;28;20186;-78
2021/05/02 04:50:46;;;;;;;11.83;7.80;;;7.50;99.90;;;;;;5031942;28;20288;-80
2021/05/02 04:53:11;;;;;;;12.07;7.83;;;7.60;99.90;;;;;;5031478;28;20191;-80
2021/05/02 04:55:37;;;;;;;10.53;7.40;;;7.80;99.90;;;;;;5030887;28;20222;-78
2021/05/02 04:58:05;;;;;;;11.67;7.37;;;7.80;99.90;;;;;;5027016;28;20277;-79
2021/05/02 05:00:31;;;;;;;13.83;8.43;;;7.80;99.90;;;;;;5030220;28;20195;-73
2021/05/02 05:02:58;;;;;;;12.13;7.90;;;7.90;99.90;;;;;;5024416;28;20182;-72
2021/05/02 05:05:24;;;;;;;12.30;7.73;;;7.80;99.90;;;;;;5024267;28;20199;-76
2021/05/02 05:07:50;;;;;;;13.33;9.00;;;7.80;99.90;;;;;;5026089;28;20187;-76
2021/05/02 05:10:16;;;;;;;11.13;7.30;;;8.00;99.90;;;;;;5024833;28;20183;-76
2021/05/02 05:12:42;;;;;;;11.03;7.97;;;8.10;99.90;;;;;;5040889;28;20674;-76
2021/05/02 05:15:09;;;;;;;9.80;7.03;;;8.20;99.90;;;;;;5025830;28;20209;-76
2021/05/02 05:17:35;;;;;;;10.40;7.40;;;8.20;99.90;;;;;;5026200;28;20274;-75
2021/05/02 05:20:02;;;;;;;11.43;7.97;;;8.30;99.90;;;;;;5025610;28;20186;-77
2021/05/02 05:22:28;;;;;;;11.77;8.13;;;8.30;99.90;;;;;;5026281;28;20205;-74
2021/05/02 05:24:54;;;;;;;11.57;7.60;;;8.40;99.90;;;;;;5026156;28;20246;-77
2021/05/02 05:27:19;;;;;;;11.03;7.80;;;8.50;99.90;;;;;;5025394;28;20264;-76
2021/05/02 05:29:45;;;;;;;9.77;6.80;;;8.50;99.90;;;;;;5025532;28;20179;-76
2021/05/02 05:32:10;;;;;;;12.20;7.20;;;8.40;99.90;;;;;;5026489;28;20201;-75
2021/05/02 05:34:36;;;;;;;9.87;7.03;;;8.50;99.90;;;;;;5027950;28;20191;-79
2021/05/02 05:37:02;;;;;;;10.37;7.23;;;8.40;99.90;;;;;;5030391;28;20268;-78
2021/05/02 05:39:27;;;;;;;12.20;6.97;;;8.40;99.90;;;;;;5029409;28;20179;-78
2021/05/02 05:41:53;;;;;;;11.37;7.23;;;8.50;99.90;;;;;;5030115;28;20289;-78
2021/05/02 05:44:18;;;;;;;8.63;6.93;;;8.50;99.90;;;;;;5031407;28;20178;-79
2021/05/02 05:46:44;;;;;;;9.73;6.67;;;8.50;99.90;;;;;;5029359;28;20179;-79
2021/05/02 05:49:10;;;;;;;10.13;7.53;;;8.50;99.90;;;;;;5029439;28;20191;-79
2021/05/02 05:51:36;;;;;;;8.80;6.70;;;8.60;99.90;;;;;;5030820;28;20720;-79
2021/05/02 05:54:03;;;;;;;10.77;7.07;;;8.60;99.90;;;;;;5029379;28;20187;-80
2021/05/02 05:56:29;;;;;;;9.30;7.43;;;8.60;99.90;;;;;;5030778;28;20647;-78
2021/05/02 05:58:54;;;;;;;9.47;6.33;;;8.70;99.90;;;;;;5031018;28;20270;-77
2021/05/02 06:01:20;;;;;;;9.90;6.77;;;8.70;99.90;;;;;;5029705;28;20222;-77
2021/05/02 06:03:45;;;;;;;10.07;7.03;;;8.70;99.90;;;;;;5029643;28;20267;-77
2021/05/02 06:06:11;;;;;;;9.50;6.60;;;8.70;99.90;;;;;;5029809;28;21315;-78
2021/05/02 06:08:37;;;;;;;9.37;6.50;;;8.80;99.90;;;;;;5030747;28;20202;-76
2021/05/02 06:11:02;;;;;;;8.07;6.07;;;8.80;99.90;;;;;;5031202;28;20199;-78
2021/05/02 06:13:28;;;;;;;9.30;5.97;;;8.90;99.90;;;;;;5030952;28;20648;-77
2021/05/02 06:15:53;;;;;;;7.80;5.33;;;8.90;99.90;;;;;;5030257;28;20202;-78
2021/05/02 06:18:19;;;;;;;7.03;5.40;;;9.10;99.90;;;;;;5030285;28;20399;-78
2021/05/02 06:20:44;;;;;;;7.37;4.90;;;9.20;99.90;;;;;;5030853;28;20214;-79
2021/05/02 06:23:10;;;;;;;7.87;4.97;;;9.20;99.90;;;;;;5029665;28;20240;-79
2021/05/02 06:25:36;;;;;;;7.03;5.37;;;9.30;99.90;;;;;;5028134;28;20191;-79
2021/05/02 06:28:01;;;;;;;7.50;5.50;;;9.40;99.90;;;;;;5031620;28;20608;-76
2021/05/02 06:30:28;;;;;;;8.13;5.23;;;9.50;99.90;;;;;;5026101;28;20524;-76
2021/05/02 06:32:53;;;;;;;6.70;5.10;;;9.50;99.90;;;;;;5027969;28;20175;-80
2021/05/02 06:35:19;;;;;;;7.40;5.30;;;9.40;99.90;;;;;;5030350;28;21141;-80
2021/05/02 06:37:44;;;;;;;7.60;5.13;;;9.20;99.90;;;;;;5028148;28;20202;-78
2021/05/02 06:40:11;;;;;;;6.77;4.93;;;9.20;99.90;;;;;;5029472;28;20702;-78
2021/05/02 06:42:36;;;;;;;7.07;5.33;;;9.00;99.90;;;;;;5030647;28;20183;-78
2021/05/02 06:45:03;;;;;;;6.50;5.07;;;9.00;99.90;;;;;;5029853;28;20268;-78
2021/05/02 06:47:29;;;;;;;6.10;4.40;;;9.00;99.90;;;;;;5029740;28;20700;-79
2021/05/02 06:49:55;;;;;;;5.10;4.30;;;9.20;99.90;;;;;;5028285;28;20179;-78
2021/05/02 06:52:20;;;;;;;6.63;4.93;;;9.20;99.90;;;;;;5027655;28;20193;-78
2021/05/02 06:54:46;;;;;;;7.13;4.87;;;9.40;99.90;;;;;;5027551;28;20213;-80
2021/05/02 06:57:12;;;;;;;5.30;4.03;;;9.50;99.90;;;;;;5029688;28;20198;-78
2021/05/02 06:59:38;;;;;;;5.27;4.03;;;9.60;99.90;;;;;;5030226;28;20201;-79
2021/05/02 07:02:04;;;;;;;4.67;3.87;;;9.70;99.90;;;;;;5029925;28;20207;-79
2021/05/02 07:04:34;;;;;;;6.07;4.27;;;9.60;99.90;;;;;;5029475;28;20198;-80
2021/05/02 07:07:03;;;;;;;6.50;4.70;;;9.70;99.90;;;;;;5029196;28;20190;-78
2021/05/02 07:09:29;;;;;;;4.93;3.90;;;9.80;99.90;;;;;;5041649;28;20175;-79
2021/05/02 07:11:55;;;;;;;6.07;4.33;;;9.90;99.90;;;;;;5026865;28;20240;-79
2021/05/02 07:14:21;;;;;;;5.83;4.87;;;9.90;99.90;;;;;;5027272;28;20210;-78
2021/05/02 07:16:46;;;;;;;5.17;4.30;;;10.00;99.90;;;;;;5027161;28;20759;-77
2021/05/02 07:19:13;;;;;;;5.13;4.10;;;10.10;99.90;;;;;;5025355;28;20197;-79
2021/05/02 07:21:39;;;;;;;5.33;4.20;;;10.40;99.90;;;;;;5024306;28;20203;-78
2021/05/02 07:24:05;;;;;;;5.77;4.07;;;10.30;99.90;;;;;;5024269;28;20194;-78
2021/05/02 07:26:31;;;;;;;5.53;4.17;;;10.20;99.90;;;;;;5028759;28;20210;-80
2021/05/02 07:28:56;;;;;;;6.13;4.10;;;10.10;99.90;;;;;;5029357;28;20218;-79
2021/05/02 07:31:22;;;;;;;7.50;4.27;;;10.10;99.90;;;;;;5029746;28;20637;-79
2021/05/02 07:33:48;;;;;;;5.40;4.20;;;10.10;99.90;;;;;;5028798;28;20274;-79
2021/05/02 07:36:14;;;;;;;5.40;4.03;;;10.20;99.90;;;;;;5028459;28;20223;-79
2021/05/02 07:38:42;;;;;;;5.47;4.40;;;10.10;99.90;;;;;;5029728;28;20198;-80
2021/05/02 07:41:08;;;;;;;5.97;4.30;;;10.00;99.90;;;;;;5028865;28;20687;-79
2021/05/02 07:43:33;;;;;;;4.97;4.17;;;9.90;99.90;;;;;;5029195;28;20207;-80
2021/05/02 07:46:03;;;;;;;5.30;4.50;;;10.00;99.90;;;;;;5029659;28;20209;-80
2021/05/02 07:48:29;;;;;;;6.00;4.70;;;10.10;99.90;;;;;;5027337;28;20175;-80
2021/05/02 07:50:55;;;;;;;6.00;4.33;;;10.30;99.90;;;;;;5027670;28;20194;-79
2021/05/02 07:53:20;;;;;;;6.20;4.57;;;10.60;99.90;;;;;;5027246;28;20245;-77
2021/05/02 07:55:46;;;;;;;7.43;4.47;;;10.90;99.90;;;;;;5026990;28;20742;-78
2021/05/02 07:58:11;;;;;;;5.00;3.73;;;11.10;99.90;;;;;;5027389;28;20233;-79
2021/05/02 08:00:37;;;;;;;4.97;3.80;;;10.90;99.90;;;;;;5032479;28;20341;-79
2021/05/02 08:03:03;;;;;;;5.67;4.30;;;10.70;99.90;;;;;;5030920;28;20191;-79
2021/05/02 08:05:31;;;;;;;5.30;4.37;;;10.60;99.90;;;;;;5030142;28;20207;-79
2021/05/02 08:07:57;;;;;;;4.97;4.37;;;10.40;99.90;;;;;;5029892;28;20703;-78
2021/05/02 08:10:23;;;;;;;5.73;4.10;;;10.20;99.90;;;;;;5032233;28;20191;-78
2021/05/02 08:12:50;;;;;;;4.83;3.20;;;10.30;99.90;;;;;;5029921;28;20183;-79
2021/05/02 08:15:15;;;;;;;4.43;3.37;;;10.60;99.90;;;;;;5030723;28;20962;-78
2021/05/02 08:17:41;;;;;;;7.03;3.40;;;10.90;99.90;;;;;;5030462;28;20180;-79
2021/05/02 08:20:08;;;;;;;4.53;3.40;;;11.10;99.90;;;;;;5031764;28;20638;-79
2021/05/02 08:22:34;;;;;;;3.43;2.87;;;11.30;99.90;;;;;;5030792;28;20224;-78
2021/05/02 08:25:00;;;;;;;3.43;3.10;;;11.30;99.90;;;;;;5030079;28;20655;-78
2021/05/02 08:27:26;;;;;;;4.47;3.47;;;11.60;99.90;;;;;;5031377;28;20190;-78
2021/05/02 08:29:51;;;;;;;3.70;2.87;;;11.80;99.90;;;;;;5032489;28;20195;-79
2021/05/02 08:32:17;;;;;;;3.07;2.40;;;12.10;99.90;;;;;;5029201;28;20546;-79
2021/05/02 08:34:42;;;;;;;3.60;2.40;;;11.80;99.90;;;;;;5031221;28;20210;-79
2021/05/02 08:37:08;;;;;;;2.70;2.43;;;11.80;99.90;;;;;;5030766;28;20199;-78
2021/05/02 08:39:34;;;;;;;2.90;2.27;;;12.10;99.90;;;;;;5028368;28;20187;-79
2021/05/02 08:42:00;;;;;;;2.63;2.23;;;12.20;99.90;;;;;;5031345;28;20606;-79
2021/05/02 08:44:28;;;;;;;6.73;3.33;;;12.10;99.90;;;;;;5029251;28;20248;-77
2021/05/02 08:46:54;;;;;;;3.70;3.27;;;12.30;99.90;;;;;;5030404;28;20185;-79
2021/05/02 08:49:20;;;;;;;3.17;2.88;;;12.60;99.90;;;;;;5029883;28;20270;-79
2021/05/02 08:51:47;;;;;;;3.47;2.60;;;12.80;99.90;;;;;;5028480;28;20183;-80
2021/05/02 08:54:12;;;;;;;3.63;2.80;;;12.90;99.90;;;;;;5032233;28;20272;-80
2021/05/02 08:56:38;;;;;;;2.85;2.47;;;12.90;99.90;;;;;;5032381;28;21137;-80
2021/05/02 08:59:06;;;;;;;2.83;2.40;;;13.00;99.90;;;;;;5031391;28;20187;-81
2021/05/02 09:01:31;;;;;;;2.47;2.28;;;13.20;99.90;;;;;;5032213;28;20203;-79
2021/05/02 09:04:01;;;;;;;2.90;2.15;;;13.30;99.90;;;;;;5032494;28;20191;-80
2021/05/02 09:06:28;;;;;;;2.28;2.08;;;13.70;99.90;;;;;;5033079;28;21005;-81
2021/05/02 09:09:04;;;;;;;3.38;1.88;;;13.70;99.90;;;;;;5031789;28;20201;-81
2021/05/02 09:11:44;;;;;;;2.90;1.95;;;13.40;99.90;;;;;;5030644;28;20187;-80
2021/05/02 09:14:16;;;;;;;2.50;2.30;;;13.20;99.90;;;;;;5039395;28;20592;-80
2021/05/02 09:16:51;;;;;;;3.05;2.25;;;13.20;99.90;;;;;;5032620;28;20205;-80
2021/05/02 09:19:18;;;;;;;4.63;1.90;;;13.20;99.90;;;;;;5031018;28;20191;-80
2021/05/02 09:21:44;;;;;;;2.25;2.05;;;13.20;99.90;;;;;;5031600;28;20225;-78
2021/05/02 09:24:31;;;;;;;3.92;2.53;;;13.10;99.90;;;;;;5028982;28;20190;-78
2021/05/02 09:27:03;;;;;;;2.15;1.95;;;13.10;99.90;;;;;;5026745;28;20174;-76
2021/05/02 09:29:31;;;;;;;2.17;1.90;;;13.00;99.90;;;;;;5026881;28;20205;-75
2021/05/02 09:31:57;;;;;;;3.33;2.45;;;13.00;99.90;;;;;;5025997;28;20182;-75
2021/05/02 09:34:23;;;;;;;2.00;1.80;;;12.60;99.90;;;;;;5026092;28;20199;-76
2021/05/02 09:37:08;;;;;;;2.73;2.20;;;12.40;99.90;;;;;;5026463;28;20179;-75
2021/05/02 09:39:42;;;;;;;2.00;1.67;;;12.10;99.90;;;;;;5026160;28;20553;-75
2021/05/02 09:42:13;;;;;;;2.63;1.92;;;12.30;99.90;;;;;;5025963;28;20561;-77
2021/05/02 09:44:49;;;;;;;3.08;2.08;;;12.70;99.90;;;;;;5026367;28;20302;-78
2021/05/02 09:47:28;;;;;;;2.50;1.83;;;12.50;99.90;;;;;;5042719;28;20462;-79
2021/05/02 09:50:23;;;;;;;2.73;2.07;;;12.40;99.90;;;;;;5026383;28;20201;-74
2021/05/02 09:52:57;;;;;;;2.10;1.70;;;12.50;99.90;;;;;;5028221;28;20691;-77
2021/05/02 09:55:34;;;;;;;2.20;1.58;;;12.30;99.90;;;;;;5026036;28;20313;-77
2021/05/02 09:58:07;;;;;;;2.22;1.70;;;12.40;99.90;;;;;;5026822;28;20186;-77
2021/05/02 10:00:49;;;;;;;2.00;1.67;;;12.80;99.90;;;;;;5026991;28;20229;-76
2021/05/02 10:03:18;;;;;;;3.22;2.00;;;12.90;99.90;;;;;;5026853;28;20179;-77
2021/05/02 10:05:58;;;;;;;2.80;2.50;;;13.10;99.90;;;;;;5025886;28;20210;-82
2021/05/02 10:08:28;;;;;;;2.30;2.10;;;13.20;99.90;;;;;;5028041;28;20581;-75
2021/05/02 10:10:55;;;;;;;3.10;2.05;;;13.10;99.90;;;;;;5026848;28;20190;-73
2021/05/02 10:13:22;;;;;;;2.97;1.98;;;12.80;99.90;;;;;;5023667;28;20191;-75
2021/05/02 10:15:48;;;;;;;3.00;1.88;;;12.70;99.90;;;;;;5024033;28;20236;-75
2021/05/02 10:18:13;;;;;;;2.85;2.08;;;13.10;99.90;;;;;;5025134;28;20555;-75
2021/05/02 10:20:46;;;;;;;1.92;1.75;;;13.50;99.90;;;;;;5026408;28;20215;-77
2021/05/02 10:23:13;;;;;;;1.80;1.65;;;13.90;99.90;;;;;;5025603;28;20216;-80
2021/05/02 10:25:41;;;;;;;2.63;2.10;;;14.10;99.90;;;;;;5026913;28;20751;-78
2021/05/02 10:28:06;;;;;;;2.70;2.05;;;14.20;99.90;;;;;;5025887;28;20194;-79
2021/05/02 10:30:38;;;;;;;2.90;2.10;;;14.10;99.90;;;;;;5025667;28;20187;-79
2021/05/02 10:33:14;;;;;;;1.98;1.70;;;14.00;99.90;;;;;;5027979;28;20193;-80
2021/05/02 10:35:51;;;;;;;2.00;1.80;;;14.00;99.90;;;;;;5021160;28;20260;-76
2021/05/02 10:38:20;;;;;;;2.70;2.25;;;13.90;99.90;;;;;;5022512;28;20213;-75
2021/05/02 10:40:46;;;;;;;2.60;2.03;;;13.80;99.90;;;;;;5023058;28;20626;-78
2021/05/02 10:43:29;;;;;;;2.22;1.85;;;13.80;99.90;;;;;;5023720;28;20187;-80
2021/05/02 10:45:55;;;;;;;3.45;2.63;;;13.70;99.90;;;;;;5026397;28;20198;-78
2021/05/02 10:48:21;;;;;;;3.33;2.95;;;13.60;99.90;;;;;;5026843;28;20186;-76
2021/05/02 10:50:48;;;;;;;2.90;2.50;;;13.00;99.90;;;;;;5027276;28;20671;-78
2021/05/02 10:53:19;;;;;;;3.67;2.55;;;13.20;99.90;;;;;;5026401;28;20190;-78
2021/05/02 10:56:02;;;;;;;4.22;2.60;;;13.20;99.90;;;;;;5026833;28;20264;-75
2021/05/02 10:58:33;;;;;;;3.35;2.60;;;13.40;99.90;;;;;;5026410;28;20240;-81
2021/05/02 11:01:04;;;;;;;3.05;2.50;;;13.40;99.90;;;;;;5026137;28;20706;-80
2021/05/02 11:03:38;;;;;;;4.40;2.30;;;13.10;99.90;;;;;;5027520;28;20189;-79
2021/05/02 11:06:09;;;;;;;3.50;3.20;;;13.10;99.90;;;;;;5025855;28;20207;-81
2021/05/02 11:09:07;;;;;;;2.92;2.50;;;13.10;99.90;;;;;;5026458;28;20182;-79
2021/05/02 11:11:35;;;;;;;3.28;2.45;;;13.10;99.90;;;;;;5014561;28;20450;-81
2021/05/02 11:14:07;;;;;;;4.40;2.75;;;13.30;99.90;;;;;;5026931;28;20197;-80
2021/05/02 11:16:33;;;;;;;2.90;2.60;;;13.20;99.90;;;;;;5027134;28;20181;-78
2021/05/02 11:18:59;;;;;;;2.63;1.92;;;13.00;99.90;;;;;;5025447;28;20731;-78
2021/05/02 11:21:25;;;;;;;3.22;2.53;;;13.00;99.90;;;;;;5026832;28;20242;-79
2021/05/02 11:24:00;;;;;;;2.97;2.67;;;12.90;99.90;;;;;;5027356;28;20648;-81
2021/05/02 11:27:06;;;;;;;3.20;2.40;;;13.00;99.90;;;;;;5025831;28;20198;-79
2021/05/02 11:32:31;;;;;;;2.60;2.03;;;13.50;99.90;;;;;;5026962;28;20233;-80
2021/05/02 11:34:58;;;;;;;3.90;2.40;;;13.60;99.90;;;;;;5029192;28;20313;-79
2021/05/02 11:37:48;;;;;;;3.20;2.42;;;13.70;99.90;;;;;;5030402;28;20207;-80
2021/05/02 11:40:26;;;;;;;3.45;2.08;;;13.80;99.90;;;;;;5029794;28;20198;-78
2021/05/02 11:42:54;;;;;;;4.13;2.10;;;13.70;99.90;;;;;;5030639;28;20408;-79
2021/05/02 11:45:21;;;;;;;3.03;1.95;;;13.40;99.90;;;;;;5030186;28;20207;-79
2021/05/02 11:47:47;;;;;;;2.60;2.10;;;13.20;99.90;;;;;;5030208;28;20236;-79
2021/05/02 11:50:13;;;;;;;2.03;1.50;;;13.30;99.90;;;;;;5029638;28;20182;-80
2021/05/02 11:52:50;;;;;;;1.30;1.20;;;13.40;99.90;;;;;;5029674;28;20198;-77
2021/05/02 11:55:40;;;;;;;2.53;1.63;;;13.10;99.90;;;;;;5029113;28;20210;-78
2021/05/02 11:58:14;;;;;;;2.85;1.80;;;13.20;99.90;;;;;;5029174;28;20183;-79
2021/05/02 12:00:39;;;;;;;2.73;2.07;;;13.60;99.90;;;;;;5028917;28;20207;-78
2021/05/02 12:03:06;;;;;;;2.75;2.45;;;13.50;99.90;;;;;;5029344;28;20271;-80
2021/05/02 12:05:32;;;;;;;2.75;1.95;;;13.50;99.90;;;;;;5029418;28;20206;-79
2021/05/02 12:08:12;;;;;;;1.38;1.27;;;13.50;99.90;;;;;;5029895;28;20183;-78
2021/05/02 12:10:38;;;;;;;0.80;0.80;;;12.80;99.90;;;;;;5029522;28;20189;-78
2021/05/02 12:13:05;;;;;;;1.17;1.05;;;12.30;99.90;;;;;;5029562;28;20187;-81
2021/05/02 12:15:33;;;;;;;1.60;1.17;;;12.00;99.90;;;;;;5027881;28;20341;-79
2021/05/02 12:17:59;;;;;;;1.23;0.83;;;11.50;99.90;;;;;;5029614;28;20191;-79
2021/05/02 12:20:27;;;;;;;1.17;1.00;;;11.30;99.90;;;;;;5029270;28;20183;-78
2021/05/02 12:22:53;;;;;;;2.03;1.30;;;10.80;99.90;;;;;;5028916;28;20211;-78
2021/05/02 12:25:19;;;;;;;1.67;1.13;;;10.60;99.90;;;;;;5028027;28;20206;-81
2021/05/02 12:28:00;;;;;;;1.57;1.23;;;10.60;99.90;;;;;;5028540;28;20183;-78
2021/05/02 12:30:27;;;;;;;2.67;1.30;;;10.80;99.90;;;;;;5027702;28;20215;-80
2021/05/02 12:32:55;;;;;;;2.20;1.37;;;10.90;99.90;;;;;;5028378;28;20225;-76
2021/05/02 12:35:22;;;;;;;2.07;1.73;;;11.10;99.90;;;;;;5027937;28;20206;-81
2021/05/02 12:37:47;;;;;;;2.60;1.97;;;11.00;99.90;;;;;;5028746;28;20660;-81
2021/05/02 12:40:14;;;;;;;3.07;2.33;;;11.30;99.90;;;;;;5027505;28;20191;-80
2021/05/02 12:42:40;;;;;;;2.43;2.10;;;11.50;99.90;;;;;;5028339;28;20210;-79
2021/05/02 12:45:09;;;;;;;3.73;2.50;;;11.30;99.90;;;;;;5027277;28;20293;-80
2021/05/02 12:47:49;;;;;;;2.90;2.50;;;11.30;99.90;;;;;;5027682;28;20179;-77
2021/05/02 12:50:15;;;;;;;2.83;2.13;;;11.40;99.90;;;;;;5026936;28;20197;-76
2021/05/02 12:52:46;;;;;;;2.40;1.90;;;11.70;99.90;;;;;;5026707;28;20190;-78
2021/05/02 12:55:29;;;;;;;2.80;2.17;;;12.10;99.90;;;;;;5025999;28;20264;-79
2021/05/02 12:57:59;;;;;;;3.50;2.83;;;12.10;99.90;;;;;;5023335;28;20221;-78
2021/05/02 13:00:34;;;;;;;3.30;2.77;;;12.20;99.90;;;;;;5026639;28;20478;-78
2021/05/02 13:03:24;;;;;;;2.83;2.17;;;12.50;99.90;;;;;;5028267;28;20266;-79